sensor_id;sensor_type;location;lat;lon;timestamp;P1;durP1;ratioP1;P2;durP2;ratioP2
1380;SDS011;684;48.342;10.096;2022-11-15T00:00:28;12.23;;;7.87;;
1380;SDS011;684;48.342;10.096;2022-11-15T00:02:54;14.17;;;8.47;;
1380;SDS011;684;48.342;10.096;2022-11-15T00:05:21;14.40;;;9.07;;
1380;SDS011;684;48.342;10.096;2022-11-15T00:07:48;12.87;;;8.40;;
1380;SDS011;684;48.342;10.096;2022-11-15T00:10:15;12.10;;;7.80;;
1380;SDS011;684;48.342;10.096;2022-11-15T00:12:42;11.30;;;7.50;;
1380;SDS011;684;48.342;10.096;2022-11-15T00:15:09;12.80;;;7.87;;
1380;SDS011;684;48.342;10.096;2022-11-15T00:17:37;14.13;;;8.77;;
1380;SDS011;684;48.342;10.096;2022-11-15T00:20:04;14.33;;;8.00;;
1380;SDS011;684;48.342;10.096;2022-11-15T00:22:31;13.47;;;9.10;;
1380;SDS011;684;48.342;10.096;2022-11-15T00:24:59;12.90;;;8.13;;
1380;SDS011;684;48.342;10.096;2022-11-15T00:27:26;13.13;;;8.60;;
1380;SDS011;684;48.342;10.096;2022-11-15T00:29:53;14.07;;;8.67;;
1380;SDS011;684;48.342;10.096;2022-11-15T00:32:20;12.13;;;8.50;;
1380;SDS011;684;48.342;10.096;2022-11-15T00:34:48;12.27;;;8.00;;
1380;SDS011;684;48.342;10.096;2022-11-15T00:37:15;12.60;;;8.13;;
1380;SDS011;684;48.342;10.096;2022-11-15T00:39:42;11.57;;;8.17;;
1380;SDS011;684;48.342;10.096;2022-11-15T00:42:08;11.20;;;8.10;;
1380;SDS011;684;48.342;10.096;2022-11-15T00:44:35;11.90;;;8.00;;
1380;SDS011;684;48.342;10.096;2022-11-15T00:47:02;14.60;;;8.10;;
1380;SDS011;684;48.342;10.096;2022-11-15T00:49:29;12.57;;;8.27;;
1380;SDS011;684;48.342;10.096;2022-11-15T00:51:57;10.87;;;7.23;;
1380;SDS011;684;48.342;10.096;2022-11-15T00:54:24;12.33;;;8.20;;
1380;SDS011;684;48.342;10.096;2022-11-15T00:56:50;11.03;;;8.20;;
1380;SDS011;684;48.342;10.096;2022-11-15T00:59:17;12.87;;;8.03;;
1380;SDS011;684;48.342;10.096;2022-11-15T01:01:44;15.70;;;8.60;;
1380;SDS011;684;48.342;10.096;2022-11-15T01:04:10;12.77;;;8.07;;
1380;SDS011;684;48.342;10.096;2022-11-15T01:06:37;12.80;;;7.83;;
1380;SDS011;684;48.342;10.096;2022-11-15T01:09:05;12.80;;;8.30;;
1380;SDS011;684;48.342;10.096;2022-11-15T01:11:32;16.97;;;8.20;;
1380;SDS011;684;48.342;10.096;2022-11-15T01:13:59;12.00;;;7.70;;
1380;SDS011;684;48.342;10.096;2022-11-15T01:16:25;12.70;;;8.60;;
1380;SDS011;684;48.342;10.096;2022-11-15T01:18:52;13.63;;;8.67;;
1380;SDS011;684;48.342;10.096;2022-11-15T01:21:19;13.77;;;8.50;;
1380;SDS011;684;48.342;10.096;2022-11-15T01:23:46;12.57;;;7.63;;
1380;SDS011;684;48.342;10.096;2022-11-15T01:26:14;14.40;;;8.40;;
1380;SDS011;684;48.342;10.096;2022-11-15T01:28:42;13.13;;;8.43;;
1380;SDS011;684;48.342;10.096;2022-11-15T01:31:11;12.20;;;7.70;;
1380;SDS011;684;48.342;10.096;2022-11-15T01:33:39;13.43;;;8.30;;
1380;SDS011;684;48.342;10.096;2022-11-15T01:36:07;11.57;;;8.23;;
1380;SDS011;684;48.342;10.096;2022-11-15T01:38:37;11.87;;;8.67;;
1380;SDS011;684;48.342;10.096;2022-11-15T01:41:04;13.10;;;7.70;;
1380;SDS011;684;48.342;10.096;2022-11-15T01:43:33;9.83;;;7.27;;
1380;SDS011;684;48.342;10.096;2022-11-15T01:46:03;11.43;;;7.47;;
1380;SDS011;684;48.342;10.096;2022-11-15T01:48:33;10.33;;;7.57;;
1380;SDS011;684;48.342;10.096;2022-11-15T01:51:02;11.97;;;7.53;;
1380;SDS011;684;48.342;10.096;2022-11-15T01:53:32;11.07;;;7.50;;
1380;SDS011;684;48.342;10.096;2022-11-15T01:56:02;13.37;;;8.40;;
1380;SDS011;684;48.342;10.096;2022-11-15T01:58:33;16.03;;;7.73;;
1380;SDS011;684;48.342;10.096;2022-11-15T02:01:01;9.87;;;6.73;;
1380;SDS011;684;48.342;10.096;2022-11-15T02:03:31;11.73;;;7.30;;
1380;SDS011;684;48.342;10.096;2022-11-15T02:06:04;10.47;;;7.10;;
1380;SDS011;684;48.342;10.096;2022-11-15T02:08:31;11.47;;;7.30;;
1380;SDS011;684;48.342;10.096;2022-11-15T02:10:58;11.37;;;6.63;;
1380;SDS011;684;48.342;10.096;2022-11-15T02:13:25;10.80;;;6.90;;
1380;SDS011;684;48.342;10.096;2022-11-15T02:15:56;11.80;;;6.67;;
1380;SDS011;684;48.342;10.096;2022-11-15T02:18:31;11.70;;;7.30;;
1380;SDS011;684;48.342;10.096;2022-11-15T02:21:04;9.57;;;6.93;;
1380;SDS011;684;48.342;10.096;2022-11-15T02:32:47;10.50;;;7.13;;
1380;SDS011;684;48.342;10.096;2022-11-15T02:35:19;11.00;;;7.17;;
1380;SDS011;684;48.342;10.096;2022-11-15T02:37:56;10.50;;;7.10;;
1380;SDS011;684;48.342;10.096;2022-11-15T02:40:27;10.93;;;7.30;;
1380;SDS011;684;48.342;10.096;2022-11-15T02:43:04;9.67;;;6.43;;
1380;SDS011;684;48.342;10.096;2022-11-15T02:46:09;10.70;;;7.30;;
1380;SDS011;684;48.342;10.096;2022-11-15T02:48:40;11.20;;;7.07;;
1380;SDS011;684;48.342;10.096;2022-11-15T02:51:09;14.10;;;7.70;;
1380;SDS011;684;48.342;10.096;2022-11-15T02:53:37;11.67;;;7.70;;
1380;SDS011;684;48.342;10.096;2022-11-15T02:56:04;12.50;;;7.57;;
1380;SDS011;684;48.342;10.096;2022-11-15T02:58:39;10.73;;;7.53;;
1380;SDS011;684;48.342;10.096;2022-11-15T03:01:18;10.60;;;7.43;;
1380;SDS011;684;48.342;10.096;2022-11-15T03:03:58;11.43;;;7.90;;
1380;SDS011;684;48.342;10.096;2022-11-15T03:06:32;11.20;;;7.20;;
1380;SDS011;684;48.342;10.096;2022-11-15T03:09:07;11.00;;;7.90;;
1380;SDS011;684;48.342;10.096;2022-11-15T03:11:38;10.53;;;7.07;;
1380;SDS011;684;48.342;10.096;2022-11-15T03:14:14;17.03;;;8.73;;
1380;SDS011;684;48.342;10.096;2022-11-15T03:16:49;12.90;;;6.97;;
1380;SDS011;684;48.342;10.096;2022-11-15T03:19:25;11.83;;;7.97;;
1380;SDS011;684;48.342;10.096;2022-11-15T03:21:56;11.67;;;7.40;;
1380;SDS011;684;48.342;10.096;2022-11-15T03:24:26;10.97;;;7.67;;
1380;SDS011;684;48.342;10.096;2022-11-15T03:26:56;10.87;;;8.10;;
1380;SDS011;684;48.342;10.096;2022-11-15T03:29:27;12.87;;;8.43;;
1380;SDS011;684;48.342;10.096;2022-11-15T03:32:00;12.00;;;7.37;;
1380;SDS011;684;48.342;10.096;2022-11-15T03:34:32;11.07;;;7.47;;
1380;SDS011;684;48.342;10.096;2022-11-15T03:37:03;13.80;;;7.47;;
1380;SDS011;684;48.342;10.096;2022-11-15T03:39:31;10.60;;;7.20;;
1380;SDS011;684;48.342;10.096;2022-11-15T03:42:02;10.77;;;7.23;;
1380;SDS011;684;48.342;10.096;2022-11-15T03:44:36;10.30;;;6.63;;
1380;SDS011;684;48.342;10.096;2022-11-15T03:47:09;10.03;;;6.57;;
1380;SDS011;684;48.342;10.096;2022-11-15T03:49:39;14.30;;;7.40;;
1380;SDS011;684;48.342;10.096;2022-11-15T03:52:10;9.90;;;7.00;;
1380;SDS011;684;48.342;10.096;2022-11-15T03:54:44;11.70;;;6.93;;
1380;SDS011;684;48.342;10.096;2022-11-15T03:57:14;12.23;;;7.10;;
1380;SDS011;684;48.342;10.096;2022-11-15T03:59:40;12.43;;;6.60;;
1380;SDS011;684;48.342;10.096;2022-11-15T04:02:09;12.77;;;7.27;;
1380;SDS011;684;48.342;10.096;2022-11-15T04:04:35;11.00;;;6.60;;
1380;SDS011;684;48.342;10.096;2022-11-15T04:07:02;10.60;;;7.10;;
1380;SDS011;684;48.342;10.096;2022-11-15T04:09:29;12.77;;;8.37;;
1380;SDS011;684;48.342;10.096;2022-11-15T04:11:56;12.30;;;7.80;;
1380;SDS011;684;48.342;10.096;2022-11-15T04:14:23;10.10;;;7.43;;
1380;SDS011;684;48.342;10.096;2022-11-15T04:16:49;10.37;;;7.50;;
1380;SDS011;684;48.342;10.096;2022-11-15T04:19:17;9.20;;;6.60;;
1380;SDS011;684;48.342;10.096;2022-11-15T04:22:02;10.60;;;7.60;;
1380;SDS011;684;48.342;10.096;2022-11-15T04:24:46;9.97;;;6.90;;
1380;SDS011;684;48.342;10.096;2022-11-15T04:27:13;11.90;;;8.10;;
1380;SDS011;684;48.342;10.096;2022-11-15T04:29:39;11.83;;;7.80;;
1380;SDS011;684;48.342;10.096;2022-11-15T04:32:06;12.67;;;7.80;;
1380;SDS011;684;48.342;10.096;2022-11-15T04:34:34;10.97;;;6.70;;
1380;SDS011;684;48.342;10.096;2022-11-15T04:37:03;9.83;;;7.73;;
1380;SDS011;684;48.342;10.096;2022-11-15T04:39:38;10.17;;;7.53;;
1380;SDS011;684;48.342;10.096;2022-11-15T04:42:05;12.27;;;7.70;;
1380;SDS011;684;48.342;10.096;2022-11-15T04:44:31;10.50;;;7.40;;
1380;SDS011;684;48.342;10.096;2022-11-15T04:46:58;12.77;;;8.67;;
1380;SDS011;684;48.342;10.096;2022-11-15T04:49:25;11.77;;;7.77;;
1380;SDS011;684;48.342;10.096;2022-11-15T04:51:53;13.67;;;9.67;;
1380;SDS011;684;48.342;10.096;2022-11-15T04:54:20;11.53;;;8.00;;
1380;SDS011;684;48.342;10.096;2022-11-15T04:56:47;13.10;;;8.43;;
1380;SDS011;684;48.342;10.096;2022-11-15T04:59:13;13.37;;;8.20;;
1380;SDS011;684;48.342;10.096;2022-11-15T05:01:40;12.53;;;8.53;;
1380;SDS011;684;48.342;10.096;2022-11-15T05:04:07;13.20;;;9.43;;
1380;SDS011;684;48.342;10.096;2022-11-15T05:06:45;13.30;;;7.73;;
1380;SDS011;684;48.342;10.096;2022-11-15T05:09:14;11.30;;;8.30;;
1380;SDS011;684;48.342;10.096;2022-11-15T05:11:42;14.37;;;9.33;;
1380;SDS011;684;48.342;10.096;2022-11-15T05:14:09;14.83;;;8.77;;
1380;SDS011;684;48.342;10.096;2022-11-15T05:16:36;10.97;;;7.80;;
1380;SDS011;684;48.342;10.096;2022-11-15T05:19:03;14.40;;;8.30;;
1380;SDS011;684;48.342;10.096;2022-11-15T05:21:31;11.43;;;7.97;;
1380;SDS011;684;48.342;10.096;2022-11-15T05:23:58;16.73;;;10.07;;
1380;SDS011;684;48.342;10.096;2022-11-15T05:26:26;12.57;;;8.83;;
1380;SDS011;684;48.342;10.096;2022-11-15T05:28:54;13.00;;;9.00;;
1380;SDS011;684;48.342;10.096;2022-11-15T05:31:21;12.13;;;8.90;;
1380;SDS011;684;48.342;10.096;2022-11-15T05:33:49;13.37;;;9.60;;
1380;SDS011;684;48.342;10.096;2022-11-15T05:36:17;13.90;;;8.83;;
1380;SDS011;684;48.342;10.096;2022-11-15T05:38:48;12.90;;;8.20;;
1380;SDS011;684;48.342;10.096;2022-11-15T05:41:15;11.97;;;8.23;;
1380;SDS011;684;48.342;10.096;2022-11-15T05:43:46;12.47;;;8.30;;
1380;SDS011;684;48.342;10.096;2022-11-15T05:46:14;13.87;;;8.37;;
1380;SDS011;684;48.342;10.096;2022-11-15T05:48:42;11.30;;;8.73;;
1380;SDS011;684;48.342;10.096;2022-11-15T05:51:13;12.17;;;8.90;;
1380;SDS011;684;48.342;10.096;2022-11-15T05:53:41;14.20;;;9.43;;
1380;SDS011;684;48.342;10.096;2022-11-15T05:56:09;12.80;;;8.80;;
1380;SDS011;684;48.342;10.096;2022-11-15T05:58:36;15.20;;;8.60;;
1380;SDS011;684;48.342;10.096;2022-11-15T06:01:05;15.03;;;8.50;;
1380;SDS011;684;48.342;10.096;2022-11-15T06:03:32;13.47;;;9.43;;
1380;SDS011;684;48.342;10.096;2022-11-15T06:05:58;14.47;;;7.70;;
1380;SDS011;684;48.342;10.096;2022-11-15T06:08:25;12.03;;;8.23;;
1380;SDS011;684;48.342;10.096;2022-11-15T06:10:52;13.83;;;8.93;;
1380;SDS011;684;48.342;10.096;2022-11-15T06:13:19;11.77;;;8.80;;
1380;SDS011;684;48.342;10.096;2022-11-15T06:15:46;13.17;;;9.20;;
1380;SDS011;684;48.342;10.096;2022-11-15T06:18:14;18.83;;;8.23;;
1380;SDS011;684;48.342;10.096;2022-11-15T06:20:41;12.40;;;8.60;;
1380;SDS011;684;48.342;10.096;2022-11-15T06:23:08;12.47;;;7.83;;
1380;SDS011;684;48.342;10.096;2022-11-15T06:25:34;11.50;;;8.43;;
1380;SDS011;684;48.342;10.096;2022-11-15T06:28:01;13.60;;;8.97;;
1380;SDS011;684;48.342;10.096;2022-11-15T06:30:28;20.97;;;9.83;;
1380;SDS011;684;48.342;10.096;2022-11-15T06:32:58;17.40;;;9.07;;
1380;SDS011;684;48.342;10.096;2022-11-15T06:35:28;16.30;;;8.87;;
1380;SDS011;684;48.342;10.096;2022-11-15T06:37:55;12.47;;;8.50;;
1380;SDS011;684;48.342;10.096;2022-11-15T06:40:27;14.00;;;9.00;;
1380;SDS011;684;48.342;10.096;2022-11-15T06:42:57;12.70;;;8.43;;
1380;SDS011;684;48.342;10.096;2022-11-15T06:45:24;17.53;;;8.17;;
1380;SDS011;684;48.342;10.096;2022-11-15T06:47:51;16.63;;;9.00;;
1380;SDS011;684;48.342;10.096;2022-11-15T06:50:18;13.13;;;8.53;;
1380;SDS011;684;48.342;10.096;2022-11-15T06:52:46;15.30;;;8.40;;
1380;SDS011;684;48.342;10.096;2022-11-15T06:55:13;12.37;;;8.57;;
1380;SDS011;684;48.342;10.096;2022-11-15T06:57:45;13.67;;;8.70;;
1380;SDS011;684;48.342;10.096;2022-11-15T07:00:13;14.33;;;9.33;;
1380;SDS011;684;48.342;10.096;2022-11-15T07:02:41;16.83;;;8.33;;
1380;SDS011;684;48.342;10.096;2022-11-15T07:05:08;13.93;;;9.23;;
1380;SDS011;684;48.342;10.096;2022-11-15T07:07:34;15.23;;;10.10;;
1380;SDS011;684;48.342;10.096;2022-11-15T07:10:03;14.63;;;9.87;;
1380;SDS011;684;48.342;10.096;2022-11-15T07:12:31;15.30;;;9.97;;
1380;SDS011;684;48.342;10.096;2022-11-15T07:14:58;12.47;;;8.40;;
1380;SDS011;684;48.342;10.096;2022-11-15T07:17:25;11.50;;;8.10;;
1380;SDS011;684;48.342;10.096;2022-11-15T07:19:51;11.03;;;6.73;;
1380;SDS011;684;48.342;10.096;2022-11-15T07:22:18;9.10;;;6.00;;
1380;SDS011;684;48.342;10.096;2022-11-15T07:24:45;8.07;;;5.50;;
1380;SDS011;684;48.342;10.096;2022-11-15T07:27:13;10.30;;;6.57;;
1380;SDS011;684;48.342;10.096;2022-11-15T07:29:40;10.40;;;7.33;;
1380;SDS011;684;48.342;10.096;2022-11-15T07:32:07;10.77;;;7.13;;
1380;SDS011;684;48.342;10.096;2022-11-15T07:34:34;11.57;;;7.03;;
1380;SDS011;684;48.342;10.096;2022-11-15T07:37:01;11.80;;;6.93;;
1380;SDS011;684;48.342;10.096;2022-11-15T07:39:28;12.07;;;7.33;;
1380;SDS011;684;48.342;10.096;2022-11-15T07:41:55;10.77;;;6.13;;
1380;SDS011;684;48.342;10.096;2022-11-15T07:44:37;10.27;;;6.37;;
1380;SDS011;684;48.342;10.096;2022-11-15T07:47:03;9.80;;;6.57;;
1380;SDS011;684;48.342;10.096;2022-11-15T07:49:30;10.40;;;7.33;;
1380;SDS011;684;48.342;10.096;2022-11-15T07:51:57;10.67;;;6.97;;
1380;SDS011;684;48.342;10.096;2022-11-15T07:54:24;8.93;;;6.90;;
1380;SDS011;684;48.342;10.096;2022-11-15T07:56:50;10.20;;;5.70;;
1380;SDS011;684;48.342;10.096;2022-11-15T07:59:17;8.00;;;5.53;;
1380;SDS011;684;48.342;10.096;2022-11-15T08:01:45;9.67;;;6.90;;
1380;SDS011;684;48.342;10.096;2022-11-15T08:04:12;7.97;;;5.70;;
1380;SDS011;684;48.342;10.096;2022-11-15T08:06:39;11.10;;;6.40;;
1380;SDS011;684;48.342;10.096;2022-11-15T08:09:06;10.80;;;6.00;;
1380;SDS011;684;48.342;10.096;2022-11-15T08:11:33;9.10;;;6.10;;
1380;SDS011;684;48.342;10.096;2022-11-15T08:13:59;10.47;;;6.70;;
1380;SDS011;684;48.342;10.096;2022-11-15T08:16:26;12.07;;;7.50;;
1380;SDS011;684;48.342;10.096;2022-11-15T08:18:54;11.00;;;6.60;;
1380;SDS011;684;48.342;10.096;2022-11-15T08:21:21;9.10;;;5.93;;
1380;SDS011;684;48.342;10.096;2022-11-15T08:23:48;10.60;;;6.10;;
1380;SDS011;684;48.342;10.096;2022-11-15T08:26:15;7.83;;;5.87;;
1380;SDS011;684;48.342;10.096;2022-11-15T08:28:43;11.40;;;6.17;;
1380;SDS011;684;48.342;10.096;2022-11-15T08:31:12;9.37;;;6.50;;
1380;SDS011;684;48.342;10.096;2022-11-15T08:33:41;10.40;;;6.30;;
1380;SDS011;684;48.342;10.096;2022-11-15T08:36:11;10.47;;;6.40;;
1380;SDS011;684;48.342;10.096;2022-11-15T08:38:40;10.17;;;7.90;;
1380;SDS011;684;48.342;10.096;2022-11-15T08:41:10;10.40;;;6.53;;
1380;SDS011;684;48.342;10.096;2022-11-15T08:43:39;9.33;;;5.90;;
1380;SDS011;684;48.342;10.096;2022-11-15T08:46:07;9.70;;;5.50;;
1380;SDS011;684;48.342;10.096;2022-11-15T08:48:37;8.70;;;5.43;;
1380;SDS011;684;48.342;10.096;2022-11-15T08:51:03;8.27;;;5.60;;
1380;SDS011;684;48.342;10.096;2022-11-15T08:53:33;7.93;;;4.87;;
1380;SDS011;684;48.342;10.096;2022-11-15T08:55:59;11.10;;;5.47;;
1380;SDS011;684;48.342;10.096;2022-11-15T08:58:26;7.00;;;4.30;;
1380;SDS011;684;48.342;10.096;2022-11-15T09:00:53;7.17;;;4.83;;
1380;SDS011;684;48.342;10.096;2022-11-15T09:03:20;6.40;;;4.50;;
1380;SDS011;684;48.342;10.096;2022-11-15T09:05:47;8.07;;;4.83;;
1380;SDS011;684;48.342;10.096;2022-11-15T09:08:13;7.70;;;4.30;;
1380;SDS011;684;48.342;10.096;2022-11-15T09:10:42;7.70;;;4.57;;
1380;SDS011;684;48.342;10.096;2022-11-15T09:13:08;7.30;;;4.43;;
1380;SDS011;684;48.342;10.096;2022-11-15T09:15:35;9.70;;;5.40;;
1380;SDS011;684;48.342;10.096;2022-11-15T09:18:02;7.27;;;5.23;;
1380;SDS011;684;48.342;10.096;2022-11-15T09:20:29;8.00;;;5.33;;
1380;SDS011;684;48.342;10.096;2022-11-15T09:22:58;7.80;;;5.00;;
1380;SDS011;684;48.342;10.096;2022-11-15T09:25:26;10.90;;;5.30;;
1380;SDS011;684;48.342;10.096;2022-11-15T09:27:55;7.10;;;4.90;;
1380;SDS011;684;48.342;10.096;2022-11-15T09:30:22;12.80;;;5.17;;
1380;SDS011;684;48.342;10.096;2022-11-15T09:32:49;8.00;;;5.47;;
1380;SDS011;684;48.342;10.096;2022-11-15T09:35:16;8.40;;;5.47;;
1380;SDS011;684;48.342;10.096;2022-11-15T09:37:43;7.30;;;5.63;;
1380;SDS011;684;48.342;10.096;2022-11-15T09:40:11;11.17;;;6.63;;
1380;SDS011;684;48.342;10.096;2022-11-15T09:42:45;8.30;;;6.40;;
1380;SDS011;684;48.342;10.096;2022-11-15T09:45:26;8.20;;;5.47;;
1380;SDS011;684;48.342;10.096;2022-11-15T09:51:08;8.40;;;7.07;;
1380;SDS011;684;48.342;10.096;2022-11-15T09:53:41;10.47;;;8.57;;
1380;SDS011;684;48.342;10.096;2022-11-15T09:56:16;11.20;;;9.40;;
1380;SDS011;684;48.342;10.096;2022-11-15T09:58:46;11.90;;;9.30;;
1380;SDS011;684;48.342;10.096;2022-11-15T10:01:26;12.27;;;8.40;;
1380;SDS011;684;48.342;10.096;2022-11-15T10:04:01;9.03;;;8.07;;
1380;SDS011;684;48.342;10.096;2022-11-15T10:06:28;10.20;;;8.70;;
1380;SDS011;684;48.342;10.096;2022-11-15T10:08:58;9.70;;;7.90;;
1380;SDS011;684;48.342;10.096;2022-11-15T10:11:30;10.40;;;8.20;;
1380;SDS011;684;48.342;10.096;2022-11-15T10:13:59;12.40;;;8.10;;
1380;SDS011;684;48.342;10.096;2022-11-15T10:16:34;10.50;;;7.33;;
1380;SDS011;684;48.342;10.096;2022-11-15T10:19:20;9.30;;;7.67;;
1380;SDS011;684;48.342;10.096;2022-11-15T10:21:57;10.60;;;8.53;;
1380;SDS011;684;48.342;10.096;2022-11-15T10:24:39;9.40;;;7.93;;
1380;SDS011;684;48.342;10.096;2022-11-15T10:27:09;9.53;;;7.00;;
1380;SDS011;684;48.342;10.096;2022-11-15T10:29:40;10.27;;;7.20;;
1380;SDS011;684;48.342;10.096;2022-11-15T10:32:11;9.60;;;6.90;;
1380;SDS011;684;48.342;10.096;2022-11-15T10:34:38;9.60;;;7.10;;
1380;SDS011;684;48.342;10.096;2022-11-15T10:37:05;8.87;;;6.40;;
1380;SDS011;684;48.342;10.096;2022-11-15T10:39:32;8.67;;;6.60;;
1380;SDS011;684;48.342;10.096;2022-11-15T10:42:02;7.43;;;6.37;;
1380;SDS011;684;48.342;10.096;2022-11-15T10:44:42;10.23;;;6.17;;
1380;SDS011;684;48.342;10.096;2022-11-15T10:50:00;8.93;;;6.47;;
1380;SDS011;684;48.342;10.096;2022-11-15T10:52:30;8.60;;;6.47;;
1380;SDS011;684;48.342;10.096;2022-11-15T10:55:00;7.30;;;5.90;;
1380;SDS011;684;48.342;10.096;2022-11-15T10:57:30;8.40;;;6.50;;
1380;SDS011;684;48.342;10.096;2022-11-15T11:00:00;10.70;;;6.70;;
1380;SDS011;684;48.342;10.096;2022-11-15T11:02:30;8.23;;;6.97;;
1380;SDS011;684;48.342;10.096;2022-11-15T11:05:02;9.87;;;8.23;;
1380;SDS011;684;48.342;10.096;2022-11-15T11:07:32;8.60;;;7.43;;
1380;SDS011;684;48.342;10.096;2022-11-15T11:10:01;9.13;;;7.50;;
1380;SDS011;684;48.342;10.096;2022-11-15T11:12:29;8.57;;;6.37;;
1380;SDS011;684;48.342;10.096;2022-11-15T11:14:58;8.20;;;6.20;;
1380;SDS011;684;48.342;10.096;2022-11-15T11:17:30;7.33;;;5.50;;
1380;SDS011;684;48.342;10.096;2022-11-15T11:20:10;9.20;;;6.00;;
1380;SDS011;684;48.342;10.096;2022-11-15T11:22:49;9.93;;;7.93;;
1380;SDS011;684;48.342;10.096;2022-11-15T11:25:27;9.30;;;7.30;;
1380;SDS011;684;48.342;10.096;2022-11-15T11:28:12;8.57;;;7.50;;
1380;SDS011;684;48.342;10.096;2022-11-15T11:30:49;9.10;;;6.90;;
1380;SDS011;684;48.342;10.096;2022-11-15T11:33:24;9.63;;;6.37;;
1380;SDS011;684;48.342;10.096;2022-11-15T11:35:59;9.37;;;5.60;;
1380;SDS011;684;48.342;10.096;2022-11-15T11:38:34;7.57;;;5.47;;
1380;SDS011;684;48.342;10.096;2022-11-15T11:41:14;8.10;;;4.70;;
1380;SDS011;684;48.342;10.096;2022-11-15T11:43:49;7.20;;;4.63;;
1380;SDS011;684;48.342;10.096;2022-11-15T11:46:29;6.33;;;4.10;;
1380;SDS011;684;48.342;10.096;2022-11-15T11:49:16;7.60;;;4.87;;
1380;SDS011;684;48.342;10.096;2022-11-15T11:51:49;7.13;;;5.17;;
1380;SDS011;684;48.342;10.096;2022-11-15T11:54:21;8.17;;;5.33;;
1380;SDS011;684;48.342;10.096;2022-11-15T11:56:51;8.50;;;5.63;;
1380;SDS011;684;48.342;10.096;2022-11-15T11:59:25;7.00;;;5.00;;
1380;SDS011;684;48.342;10.096;2022-11-15T12:01:57;8.17;;;4.83;;
1380;SDS011;684;48.342;10.096;2022-11-15T12:04:30;10.10;;;6.20;;
1380;SDS011;684;48.342;10.096;2022-11-15T12:07:02;10.17;;;7.17;;
1380;SDS011;684;48.342;10.096;2022-11-15T12:09:35;11.00;;;7.83;;
1380;SDS011;684;48.342;10.096;2022-11-15T12:12:06;10.77;;;7.70;;
1380;SDS011;684;48.342;10.096;2022-11-15T12:14:40;10.50;;;7.50;;
1380;SDS011;684;48.342;10.096;2022-11-15T12:17:11;10.93;;;8.33;;
1380;SDS011;684;48.342;10.096;2022-11-15T12:19:39;14.70;;;7.43;;
1380;SDS011;684;48.342;10.096;2022-11-15T12:22:09;9.77;;;6.87;;
1380;SDS011;684;48.342;10.096;2022-11-15T12:24:40;10.60;;;6.27;;
1380;SDS011;684;48.342;10.096;2022-11-15T12:27:14;8.63;;;6.63;;
1380;SDS011;684;48.342;10.096;2022-11-15T12:29:44;9.87;;;6.57;;
1380;SDS011;684;48.342;10.096;2022-11-15T12:32:18;8.63;;;6.27;;
1380;SDS011;684;48.342;10.096;2022-11-15T12:34:53;8.90;;;6.07;;
1380;SDS011;684;48.342;10.096;2022-11-15T12:37:34;8.30;;;6.20;;
1380;SDS011;684;48.342;10.096;2022-11-15T12:40:18;9.20;;;7.00;;
1380;SDS011;684;48.342;10.096;2022-11-15T12:43:04;8.40;;;5.47;;
1380;SDS011;684;48.342;10.096;2022-11-15T12:45:46;8.80;;;5.97;;
1380;SDS011;684;48.342;10.096;2022-11-15T12:57:39;9.80;;;5.87;;
1380;SDS011;684;48.342;10.096;2022-11-15T13:03:17;18.87;;;6.27;;
1380;SDS011;684;48.342;10.096;2022-11-15T13:05:58;8.57;;;5.17;;
1380;SDS011;684;48.342;10.096;2022-11-15T13:08:43;12.20;;;5.70;;
1380;SDS011;684;48.342;10.096;2022-11-15T13:17:16;12.43;;;7.07;;
1380;SDS011;684;48.342;10.096;2022-11-15T13:20:14;9.90;;;5.40;;
1380;SDS011;684;48.342;10.096;2022-11-15T13:22:48;7.70;;;5.40;;
1380;SDS011;684;48.342;10.096;2022-11-15T13:25:18;9.23;;;5.00;;
1380;SDS011;684;48.342;10.096;2022-11-15T13:27:51;8.87;;;5.23;;
1380;SDS011;684;48.342;10.096;2022-11-15T13:30:20;9.60;;;5.23;;
1380;SDS011;684;48.342;10.096;2022-11-15T13:32:48;7.47;;;4.90;;
1380;SDS011;684;48.342;10.096;2022-11-15T13:35:20;7.70;;;5.33;;
1380;SDS011;684;48.342;10.096;2022-11-15T13:37:49;7.80;;;5.00;;
1380;SDS011;684;48.342;10.096;2022-11-15T13:40:20;11.50;;;5.70;;
1380;SDS011;684;48.342;10.096;2022-11-15T13:42:50;8.97;;;5.30;;
1380;SDS011;684;48.342;10.096;2022-11-15T13:45:17;10.67;;;5.80;;
1380;SDS011;684;48.342;10.096;2022-11-15T13:47:47;9.13;;;5.40;;
1380;SDS011;684;48.342;10.096;2022-11-15T13:50:17;9.80;;;6.37;;
1380;SDS011;684;48.342;10.096;2022-11-15T13:52:47;11.83;;;6.70;;
1380;SDS011;684;48.342;10.096;2022-11-15T13:55:15;10.30;;;6.83;;
1380;SDS011;684;48.342;10.096;2022-11-15T13:57:46;14.47;;;6.60;;
1380;SDS011;684;48.342;10.096;2022-11-15T14:00:25;11.53;;;7.43;;
1380;SDS011;684;48.342;10.096;2022-11-15T14:03:04;9.70;;;6.80;;
1380;SDS011;684;48.342;10.096;2022-11-15T14:05:34;12.83;;;8.37;;
1380;SDS011;684;48.342;10.096;2022-11-15T14:08:01;9.83;;;7.23;;
1380;SDS011;684;48.342;10.096;2022-11-15T14:10:38;14.80;;;8.10;;
1380;SDS011;684;48.342;10.096;2022-11-15T14:13:09;11.87;;;8.70;;
1380;SDS011;684;48.342;10.096;2022-11-15T14:15:53;11.77;;;8.13;;
1380;SDS011;684;48.342;10.096;2022-11-15T14:21:07;9.80;;;6.97;;
1380;SDS011;684;48.342;10.096;2022-11-15T14:23:34;12.67;;;8.80;;
1380;SDS011;684;48.342;10.096;2022-11-15T14:26:01;12.60;;;9.03;;
1380;SDS011;684;48.342;10.096;2022-11-15T14:28:30;11.20;;;7.97;;
1380;SDS011;684;48.342;10.096;2022-11-15T14:31:02;11.20;;;6.70;;
1380;SDS011;684;48.342;10.096;2022-11-15T14:33:36;9.90;;;6.90;;
1380;SDS011;684;48.342;10.096;2022-11-15T14:36:05;10.70;;;6.70;;
1380;SDS011;684;48.342;10.096;2022-11-15T14:38:36;12.20;;;7.77;;
1380;SDS011;684;48.342;10.096;2022-11-15T14:41:03;10.57;;;6.67;;
1380;SDS011;684;48.342;10.096;2022-11-15T14:43:32;12.60;;;7.20;;
1380;SDS011;684;48.342;10.096;2022-11-15T14:45:58;8.40;;;6.33;;
1380;SDS011;684;48.342;10.096;2022-11-15T14:48:25;12.20;;;7.50;;
1380;SDS011;684;48.342;10.096;2022-11-15T14:50:52;13.03;;;7.77;;
1380;SDS011;684;48.342;10.096;2022-11-15T14:53:19;9.93;;;6.73;;
1380;SDS011;684;48.342;10.096;2022-11-15T14:55:47;10.20;;;6.90;;
1380;SDS011;684;48.342;10.096;2022-11-15T14:58:14;8.50;;;6.10;;
1380;SDS011;684;48.342;10.096;2022-11-15T15:00:42;14.27;;;9.10;;
1380;SDS011;684;48.342;10.096;2022-11-15T15:03:08;15.23;;;7.50;;
1380;SDS011;684;48.342;10.096;2022-11-15T15:05:36;9.43;;;5.60;;
1380;SDS011;684;48.342;10.096;2022-11-15T15:08:05;9.90;;;7.83;;
1380;SDS011;684;48.342;10.096;2022-11-15T15:10:33;12.77;;;8.23;;
1380;SDS011;684;48.342;10.096;2022-11-15T15:13:02;14.80;;;12.30;;
1380;SDS011;684;48.342;10.096;2022-11-15T15:15:31;11.03;;;9.40;;
1380;SDS011;684;48.342;10.096;2022-11-15T15:18:00;13.50;;;10.33;;
1380;SDS011;684;48.342;10.096;2022-11-15T15:20:28;10.30;;;7.60;;
1380;SDS011;684;48.342;10.096;2022-11-15T15:22:55;14.17;;;10.27;;
1380;SDS011;684;48.342;10.096;2022-11-15T15:25:23;12.53;;;7.63;;
1380;SDS011;684;48.342;10.096;2022-11-15T15:27:52;11.93;;;7.20;;
1380;SDS011;684;48.342;10.096;2022-11-15T15:30:20;11.37;;;6.70;;
1380;SDS011;684;48.342;10.096;2022-11-15T15:32:47;17.30;;;8.73;;
1380;SDS011;684;48.342;10.096;2022-11-15T15:35:16;11.83;;;6.30;;
1380;SDS011;684;48.342;10.096;2022-11-15T15:37:44;11.77;;;6.70;;
1380;SDS011;684;48.342;10.096;2022-11-15T15:40:13;9.20;;;5.67;;
1380;SDS011;684;48.342;10.096;2022-11-15T15:42:41;9.70;;;6.20;;
1380;SDS011;684;48.342;10.096;2022-11-15T15:45:08;11.97;;;6.80;;
1380;SDS011;684;48.342;10.096;2022-11-15T15:47:36;11.00;;;6.77;;
1380;SDS011;684;48.342;10.096;2022-11-15T15:50:03;11.50;;;7.10;;
1380;SDS011;684;48.342;10.096;2022-11-15T15:52:39;12.20;;;7.40;;
1380;SDS011;684;48.342;10.096;2022-11-15T15:55:06;11.17;;;6.83;;
1380;SDS011;684;48.342;10.096;2022-11-15T15:57:33;8.43;;;5.53;;